Time;durP1;ratioP1;P1;durP2;ratioP2;P2;SDS_P1;SDS_P2;PMS_P1;PMS_P2;Temp;Humidity;BMP_temperature;BMP_pressure;BME280_temperature;BME280_humidity;BME280_pressure;Samples;Min_cycle;Max_cycle;Signal;HPM_P1;HPM_P2
2023/08/01 00:01:41;;;;;;;3.92;1.88;;;16.90;99.70;;;;;;4838149;29;20045;-77
2023/08/01 00:04:08;;;;;;;4.72;1.90;;;17.00;99.70;;;;;;4868928;29;20421;-77
2023/08/01 00:06:35;;;;;;;4.30;2.13;;;16.90;99.70;;;;;;4812149;29;20037;-77
2023/08/01 00:09:02;;;;;;;3.42;1.52;;;16.90;99.70;;;;;;4810377;29;20049;-78
2023/08/01 00:11:29;;;;;;;5.68;3.28;;;16.90;99.70;;;;;;4840386;29;20041;-78
2023/08/01 00:13:56;;;;;;;5.05;2.55;;;16.90;99.80;;;;;;4822383;29;20453;-78
2023/08/01 00:16:23;;;;;;;5.68;2.80;;;16.90;99.80;;;;;;4825481;29;20091;-78
2023/08/01 00:18:50;;;;;;;4.88;2.50;;;16.80;99.80;;;;;;4837550;29;20047;-78
2023/08/01 00:21:17;;;;;;;4.78;2.58;;;16.80;99.90;;;;;;4854276;29;20068;-78
2023/08/01 00:23:44;;;;;;;4.47;2.15;;;16.80;99.90;;;;;;4853673;29;20065;-78
2023/08/01 00:26:11;;;;;;;4.65;2.40;;;16.80;99.90;;;;;;4838444;29;20049;-78
2023/08/01 00:28:38;;;;;;;4.03;2.17;;;16.70;99.90;;;;;;4838185;29;20516;-78
2023/08/01 00:31:08;;;;;;;3.75;2.03;;;16.60;99.90;;;;;;4843873;29;20049;-78
2023/08/01 00:33:35;;;;;;;3.92;2.10;;;16.50;99.90;;;;;;4814708;29;20597;-77
2023/08/01 00:36:03;;;;;;;3.72;1.50;;;16.50;99.90;;;;;;4827964;29;20072;-78
2023/08/01 00:38:30;;;;;;;3.72;1.55;;;16.50;99.90;;;;;;4857185;29;20406;-78
2023/08/01 00:40:57;;;;;;;2.90;1.85;;;16.40;99.90;;;;;;4858974;29;20049;-78
2023/08/01 00:43:24;;;;;;;3.40;1.55;;;16.30;99.90;;;;;;4865016;29;20076;-78
2023/08/01 00:46:02;;;;;;;2.80;1.30;;;16.30;99.90;;;;;;4852396;29;20101;-78
2023/08/01 00:48:30;;;;;;;3.30;1.50;;;16.30;99.90;;;;;;4849784;29;20507;-77
2023/08/01 00:51:04;;;;;;;2.47;1.00;;;16.30;99.90;;;;;;4868175;29;20068;-77
2023/08/01 00:53:31;;;;;;;3.03;1.60;;;16.30;99.90;;;;;;4859086;29;20049;-78
2023/08/01 00:55:59;;;;;;;4.70;1.23;;;16.20;99.90;;;;;;4841230;29;20056;-78
2023/08/01 00:58:26;;;;;;;3.72;1.17;;;16.20;99.90;;;;;;4851609;29;20053;-77
2023/08/01 01:00:53;;;;;;;4.53;1.65;;;16.20;99.90;;;;;;4830930;29;20056;-78
2023/08/01 01:03:21;;;;;;;3.42;1.55;;;16.20;99.90;;;;;;4852003;29;20137;-77
2023/08/01 01:06:15;;;;;;;4.03;1.50;;;16.20;99.90;;;;;;4796512;29;20062;-78
2023/08/01 01:08:43;;;;;;;3.83;1.40;;;16.20;99.90;;;;;;4841587;29;20054;-78
2023/08/01 01:11:10;;;;;;;2.53;1.20;;;16.20;99.90;;;;;;4828486;29;20068;-78
2023/08/01 01:13:37;;;;;;;3.05;1.40;;;16.20;99.90;;;;;;4837303;29;20065;-79
2023/08/01 01:16:04;;;;;;;5.75;1.40;;;16.30;99.90;;;;;;4811878;29;20152;-78
2023/08/01 01:18:31;;;;;;;2.90;1.23;;;16.30;99.90;;;;;;4802450;29;20494;-78
2023/08/01 01:21:00;;;;;;;6.68;1.40;;;16.30;99.90;;;;;;4821383;29;20499;-78
2023/08/01 01:23:28;;;;;;;3.17;1.20;;;16.30;99.90;;;;;;4829069;29;20042;-78
2023/08/01 01:25:57;;;;;;;3.58;1.83;;;16.30;99.90;;;;;;4817690;29;20055;-78
2023/08/01 01:28:26;;;;;;;4.65;2.15;;;16.30;99.90;;;;;;4828277;29;20050;-78
2023/08/01 01:30:54;;;;;;;4.22;2.22;;;16.30;99.90;;;;;;4841956;29;20058;-78
2023/08/01 01:33:22;;;;;;;5.43;1.70;;;16.30;99.90;;;;;;4806742;29;20070;-77
2023/08/01 01:35:49;;;;;;;5.07;1.90;;;16.20;99.90;;;;;;4834452;29;20774;-77
2023/08/01 01:38:16;;;;;;;4.28;1.80;;;16.20;99.90;;;;;;4799335;29;20058;-77
2023/08/01 01:40:44;;;;;;;4.97;2.35;;;16.20;99.90;;;;;;4793599;29;20049;-77
2023/08/01 01:43:10;;;;;;;4.32;1.83;;;16.20;99.90;;;;;;4819719;29;20050;-77
2023/08/01 01:45:37;;;;;;;4.22;2.17;;;16.20;99.90;;;;;;4827828;29;20048;-76
2023/08/01 01:48:04;;;;;;;4.45;2.60;;;16.20;99.90;;;;;;4827805;29;20093;-77
2023/08/01 01:50:32;;;;;;;5.80;2.53;;;16.20;99.90;;;;;;4840556;29;20058;-77
2023/08/01 01:52:59;;;;;;;7.50;2.55;;;16.10;99.90;;;;;;4791638;29;20167;-77
2023/08/01 01:55:26;;;;;;;5.15;2.28;;;16.10;99.90;;;;;;4818050;29;20176;-76
2023/08/01 01:57:53;;;;;;;4.55;3.15;;;16.10;99.90;;;;;;4824402;29;20070;-76
2023/08/01 02:00:20;;;;;;;4.25;2.13;;;16.00;99.90;;;;;;4814988;29;20102;-76
2023/08/01 02:02:47;;;;;;;5.00;2.47;;;16.00;99.90;;;;;;4793550;29;20088;-76
2023/08/01 02:05:14;;;;;;;5.45;2.65;;;15.90;99.90;;;;;;4816356;29;20054;-76
2023/08/01 02:07:52;;;;;;;5.03;2.45;;;15.90;99.90;;;;;;4809659;29;20061;-77
2023/08/01 02:10:19;;;;;;;4.55;2.35;;;15.80;99.90;;;;;;4825012;29;20059;-76
2023/08/01 02:12:46;;;;;;;5.05;2.38;;;15.80;99.90;;;;;;4719482;29;20522;-77
2023/08/01 02:15:13;;;;;;;4.28;2.25;;;15.80;99.90;;;;;;4827751;29;20049;-77
2023/08/01 02:17:40;;;;;;;7.72;2.28;;;15.70;99.90;;;;;;4791466;29;20046;-76
2023/08/01 02:20:08;;;;;;;7.53;2.40;;;15.70;99.90;;;;;;4813837;29;20145;-77
2023/08/01 02:22:35;;;;;;;4.63;2.40;;;15.70;99.90;;;;;;4828243;29;20050;-77
2023/08/01 02:25:02;;;;;;;4.35;1.80;;;15.70;99.90;;;;;;4782289;29;20045;-76
2023/08/01 02:27:29;;;;;;;2.90;1.33;;;15.70;99.90;;;;;;4793158;29;20110;-77
2023/08/01 02:29:56;;;;;;;4.80;2.33;;;15.60;99.90;;;;;;4818919;29;20447;-77
2023/08/01 02:32:23;;;;;;;4.47;2.00;;;15.60;99.90;;;;;;4805518;29;20054;-77
2023/08/01 02:34:51;;;;;;;4.60;2.30;;;15.60;99.90;;;;;;4835437;29;20041;-77
2023/08/01 02:37:17;;;;;;;3.90;2.10;;;15.60;99.90;;;;;;4839199;29;20403;-77
2023/08/01 02:39:44;;;;;;;4.00;2.05;;;15.50;99.90;;;;;;4823368;29;20552;-77
2023/08/01 02:42:13;;;;;;;4.47;1.77;;;15.50;99.90;;;;;;4839596;29;20079;-77
2023/08/01 02:44:40;;;;;;;3.55;1.52;;;15.50;99.90;;;;;;4841245;29;20132;-77
2023/08/01 02:47:07;;;;;;;5.10;1.75;;;15.50;99.90;;;;;;4821995;29;20065;-77
2023/08/01 02:49:34;;;;;;;7.07;1.98;;;15.50;99.90;;;;;;4857503;29;20043;-77
2023/08/01 02:52:02;;;;;;;5.75;2.83;;;15.40;99.90;;;;;;4860828;29;20139;-77
2023/08/01 02:54:29;;;;;;;7.70;2.72;;;15.40;99.90;;;;;;4847674;29;20049;-77
2023/08/01 02:56:56;;;;;;;5.15;2.75;;;15.50;99.90;;;;;;4837938;29;20053;-77
2023/08/01 02:59:24;;;;;;;7.93;3.67;;;15.50;99.90;;;;;;4842075;29;20052;-77
2023/08/01 03:01:50;;;;;;;5.13;2.50;;;15.50;99.90;;;;;;4843498;29;20037;-77
2023/08/01 03:04:18;;;;;;;7.35;3.00;;;15.50;99.90;;;;;;4629755;29;20057;-76
2023/08/01 03:06:52;;;;;;;5.95;2.83;;;15.60;99.90;;;;;;4867929;29;20037;-77
2023/08/01 03:09:19;;;;;;;3.75;2.15;;;15.70;99.90;;;;;;4814263;29;20100;-77
2023/08/01 03:11:46;;;;;;;6.82;3.42;;;15.70;99.90;;;;;;4834869;29;20465;-77
2023/08/01 03:14:13;;;;;;;6.22;2.55;;;15.70;99.90;;;;;;4846713;29;20072;-77
2023/08/01 03:16:40;;;;;;;4.82;2.47;;;15.60;99.90;;;;;;4825065;29;20050;-77
2023/08/01 03:19:08;;;;;;;8.35;3.08;;;15.60;99.90;;;;;;4854393;29;20049;-77
2023/08/01 03:21:35;;;;;;;5.75;2.55;;;15.60;99.90;;;;;;4846864;29;20053;-77
2023/08/01 03:24:08;;;;;;;7.82;3.30;;;15.70;99.90;;;;;;4839995;29;20061;-77
2023/08/01 03:26:36;;;;;;;7.82;4.05;;;15.70;99.90;;;;;;4831594;29;20052;-77
2023/08/01 03:29:05;;;;;;;9.60;3.83;;;15.70;99.90;;;;;;4847220;29;20117;-77
2023/08/01 03:31:32;;;;;;;7.63;3.65;;;15.70;99.90;;;;;;4870009;29;20056;-77
2023/08/01 03:33:59;;;;;;;10.20;3.47;;;15.70;99.90;;;;;;4847281;29;20084;-77
2023/08/01 03:36:26;;;;;;;6.65;3.20;;;15.70;99.90;;;;;;4829874;29;20048;-77
2023/08/01 03:38:53;;;;;;;7.10;3.10;;;15.70;99.90;;;;;;4837538;29;20089;-77
2023/08/01 03:41:20;;;;;;;6.47;3.50;;;15.70;99.90;;;;;;4825890;29;20054;-77
2023/08/01 03:43:47;;;;;;;5.05;2.95;;;15.80;99.90;;;;;;4832360;29;20045;-77
2023/08/01 03:46:14;;;;;;;8.88;4.22;;;15.80;99.90;;;;;;4825944;29;20037;-78
2023/08/01 03:48:43;;;;;;;9.25;3.70;;;15.90;99.90;;;;;;4857236;29;20521;-77
2023/08/01 03:51:10;;;;;;;6.75;3.00;;;15.90;99.90;;;;;;4794947;29;20134;-77
2023/08/01 03:53:36;;;;;;;7.35;3.08;;;15.90;99.90;;;;;;4836050;29;20057;-77
2023/08/01 03:56:05;;;;;;;7.80;3.00;;;16.00;99.90;;;;;;4862589;29;20112;-78
2023/08/01 03:58:32;;;;;;;10.40;3.97;;;16.00;99.90;;;;;;4834362;29;20045;-78
2023/08/01 04:00:59;;;;;;;8.20;3.42;;;16.00;99.90;;;;;;4837005;29;20068;-77
2023/08/01 04:03:26;;;;;;;7.10;3.08;;;16.10;99.90;;;;;;4810940;29;20052;-78
2023/08/01 04:05:54;;;;;;;8.13;3.55;;;16.00;99.90;;;;;;4802650;29;20148;-78
2023/08/01 04:08:20;;;;;;;7.72;3.17;;;16.10;99.90;;;;;;4863227;29;20418;-78
2023/08/01 04:10:49;;;;;;;5.97;2.63;;;16.10;99.90;;;;;;4828860;29;20073;-77
2023/08/01 04:13:16;;;;;;;7.63;4.13;;;16.10;99.90;;;;;;4842974;29;20051;-78
2023/08/01 04:15:43;;;;;;;7.13;3.50;;;16.10;99.90;;;;;;4865620;29;20104;-77
2023/08/01 04:18:10;;;;;;;6.50;3.55;;;16.10;99.90;;;;;;4826173;29;20129;-78
2023/08/01 04:20:37;;;;;;;10.95;4.25;;;16.10;99.90;;;;;;4809194;29;20042;-77
2023/08/01 04:23:04;;;;;;;9.63;4.22;;;16.10;99.90;;;;;;4814911;29;20061;-78
2023/08/01 04:25:32;;;;;;;9.90;3.60;;;16.10;99.90;;;;;;4823149;29;20045;-78
2023/08/01 04:27:59;;;;;;;11.73;4.13;;;16.10;99.90;;;;;;4828862;29;20045;-78
2023/08/01 04:30:26;;;;;;;9.90;3.42;;;16.10;99.90;;;;;;4823868;29;20567;-78
2023/08/01 04:32:52;;;;;;;7.97;4.32;;;16.10;99.90;;;;;;4812021;29;20049;-78
2023/08/01 04:35:19;;;;;;;8.25;2.97;;;16.10;99.90;;;;;;4811286;29;20045;-77
2023/08/01 04:37:46;;;;;;;8.05;3.85;;;16.20;99.90;;;;;;4839893;29;20040;-78
2023/08/01 04:40:13;;;;;;;10.48;3.72;;;16.20;99.90;;;;;;4667261;29;20452;-78
2023/08/01 04:42:41;;;;;;;7.05;2.92;;;16.20;99.90;;;;;;4644992;29;20054;-78
2023/08/01 04:45:08;;;;;;;10.23;3.20;;;16.20;99.90;;;;;;4794950;29;20056;-78
2023/08/01 04:47:35;;;;;;;7.13;3.03;;;16.20;99.90;;;;;;4835558;29;20387;-78
2023/08/01 04:50:03;;;;;;;6.05;2.67;;;16.20;99.90;;;;;;4848787;29;20057;-78
2023/08/01 04:52:35;;;;;;;5.18;2.38;;;16.20;99.90;;;;;;4818754;29;20056;-78
2023/08/01 04:55:03;;;;;;;8.35;2.67;;;16.10;99.90;;;;;;4851421;29;20053;-79
2023/08/01 04:57:30;;;;;;;7.10;3.00;;;16.10;99.90;;;;;;4836282;29;20053;-78
2023/08/01 04:59:57;;;;;;;9.38;2.92;;;16.10;99.90;;;;;;4823272;29;20037;-79
2023/08/01 05:02:25;;;;;;;8.10;3.03;;;16.20;99.90;;;;;;4851797;29;20042;-78
2023/08/01 05:04:52;;;;;;;5.53;2.60;;;16.20;99.90;;;;;;4841047;29;20053;-78
2023/08/01 05:07:19;;;;;;;6.03;3.35;;;16.20;99.90;;;;;;4845340;29;20053;-79
2023/08/01 05:09:46;;;;;;;8.55;2.90;;;16.20;99.90;;;;;;4810300;29;20068;-78
2023/08/01 05:12:13;;;;;;;6.78;2.92;;;16.20;99.90;;;;;;4826301;29;20060;-79
2023/08/01 05:14:41;;;;;;;9.85;3.60;;;16.20;99.90;;;;;;4831641;29;20056;-78
2023/08/01 05:17:08;;;;;;;11.23;4.30;;;16.30;99.90;;;;;;4860615;29;20045;-78
2023/08/01 05:19:36;;;;;;;9.88;3.28;;;16.30;99.90;;;;;;4834522;29;20467;-77
2023/08/01 05:22:06;;;;;;;9.52;3.17;;;16.30;99.90;;;;;;4850474;29;20045;-78
2023/08/01 05:24:34;;;;;;;6.03;2.78;;;16.30;99.90;;;;;;4858386;29;20057;-78
2023/08/01 05:27:01;;;;;;;11.95;3.95;;;16.30;99.90;;;;;;4844567;29;20045;-78
2023/08/01 05:29:28;;;;;;;8.32;3.30;;;16.30;99.90;;;;;;4836853;29;20065;-78
2023/08/01 05:31:55;;;;;;;6.85;2.75;;;16.40;99.90;;;;;;4830287;29;20384;-79
2023/08/01 05:34:22;;;;;;;7.50;2.60;;;16.40;99.90;;;;;;4825300;29;20502;-78
2023/08/01 05:37:08;;;;;;;8.68;3.70;;;16.50;99.90;;;;;;4821687;29;20049;-78
2023/08/01 05:39:35;;;;;;;8.02;3.05;;;16.50;99.90;;;;;;4839510;29;20141;-78
2023/08/01 05:42:02;;;;;;;10.43;3.65;;;16.40;99.90;;;;;;4817995;29;20472;-78
2023/08/01 05:44:30;;;;;;;7.78;3.55;;;16.50;99.90;;;;;;4836598;29;20049;-78
2023/08/01 05:46:56;;;;;;;9.35;3.50;;;16.60;99.90;;;;;;4820447;29;20052;-77
2023/08/01 05:49:24;;;;;;;7.43;3.70;;;16.60;99.90;;;;;;4823065;29;20482;-78
2023/08/01 05:51:51;;;;;;;9.05;3.63;;;16.70;99.90;;;;;;4833323;29;20141;-78
2023/08/01 05:54:19;;;;;;;7.32;2.42;;;16.70;99.90;;;;;;4837258;29;20049;-77
2023/08/01 05:56:46;;;;;;;7.40;3.08;;;16.70;99.90;;;;;;4839263;29;20092;-78
2023/08/01 05:59:14;;;;;;;9.88;3.35;;;16.70;99.90;;;;;;4843128;29;20410;-78
2023/08/01 06:01:41;;;;;;;8.15;2.92;;;16.70;99.90;;;;;;4839814;29;20040;-78
2023/08/01 06:04:08;;;;;;;10.10;3.10;;;16.80;99.90;;;;;;4823446;29;20050;-78
2023/08/01 06:06:37;;;;;;;6.50;2.90;;;16.80;99.90;;;;;;4821814;29;20125;-78
2023/08/01 06:09:05;;;;;;;8.13;3.30;;;16.90;99.90;;;;;;4793247;29;20171;-78
2023/08/01 06:11:33;;;;;;;8.23;3.45;;;16.90;99.90;;;;;;4833523;29;20049;-78
2023/08/01 06:14:00;;;;;;;7.97;3.40;;;16.90;99.90;;;;;;4859448;29;20045;-78
2023/08/01 06:16:27;;;;;;;6.50;3.40;;;16.90;99.80;;;;;;4855227;29;20057;-78
2023/08/01 06:18:54;;;;;;;7.97;3.67;;;16.90;99.80;;;;;;4824923;29;20068;-78
2023/08/01 06:21:21;;;;;;;7.72;3.53;;;16.80;99.80;;;;;;4816658;29;20061;-79
2023/08/01 06:23:48;;;;;;;11.40;5.05;;;16.90;99.80;;;;;;4845981;29;20053;-79
2023/08/01 06:26:15;;;;;;;9.57;4.32;;;16.80;99.70;;;;;;4832787;29;20045;-81
2023/08/01 06:28:43;;;;;;;9.70;4.07;;;16.80;99.70;;;;;;4859557;29;20037;-81
2023/08/01 06:31:09;;;;;;;9.23;4.13;;;16.90;99.70;;;;;;4844090;29;20498;-81
2023/08/01 06:33:36;;;;;;;9.82;4.15;;;16.90;99.60;;;;;;4818547;29;20073;-80
2023/08/01 06:36:05;;;;;;;9.60;4.50;;;16.90;99.50;;;;;;4814556;29;20726;-80
2023/08/01 06:38:32;;;;;;;8.32;3.78;;;16.90;99.50;;;;;;4850375;29;20489;-80
2023/08/01 06:40:59;;;;;;;9.43;4.38;;;16.90;99.50;;;;;;4836002;29;20053;-81
2023/08/01 06:43:28;;;;;;;7.13;3.05;;;17.00;99.40;;;;;;4804785;29;20057;-80
2023/08/01 06:45:55;;;;;;;10.38;3.25;;;17.10;99.40;;;;;;4826486;29;20487;-81
2023/08/01 06:48:22;;;;;;;8.50;4.32;;;17.10;99.20;;;;;;4844092;29;20132;-80
2023/08/01 06:50:49;;;;;;;9.15;3.88;;;17.20;99.10;;;;;;4834126;29;20054;-80
2023/08/01 06:53:16;;;;;;;7.95;3.17;;;17.20;99.10;;;;;;4842288;29;20105;-80
2023/08/01 06:55:43;;;;;;;7.28;2.90;;;17.20;99.00;;;;;;4814845;29;20060;-80
2023/08/01 06:58:10;;;;;;;7.35;3.20;;;17.30;99.00;;;;;;4813897;29;20054;-81
2023/08/01 07:00:37;;;;;;;6.55;3.00;;;17.30;98.90;;;;;;4846584;29;20777;-80
2023/08/01 07:03:24;;;;;;;8.77;2.53;;;17.40;98.90;;;;;;4823085;29;20064;-81
2023/08/01 07:05:52;;;;;;;8.95;3.22;;;17.40;98.80;;;;;;4840255;29;20061;-80
2023/08/01 07:08:21;;;;;;;8.35;2.97;;;17.40;98.60;;;;;;4833321;29;20097;-79
2023/08/01 07:10:48;;;;;;;8.75;3.40;;;17.40;98.50;;;;;;4810767;29;20060;-80
2023/08/01 07:13:16;;;;;;;8.93;3.38;;;17.50;98.50;;;;;;4833387;29;20072;-80
2023/08/01 07:15:43;;;;;;;8.18;3.28;;;17.50;98.50;;;;;;4832544;29;20046;-80
2023/08/01 07:18:10;;;;;;;9.23;3.17;;;17.50;98.40;;;;;;4833134;29;20045;-80
2023/08/01 07:20:39;;;;;;;10.65;3.85;;;17.50;98.30;;;;;;4819236;29;20050;-80
2023/08/01 07:23:06;;;;;;;8.93;3.28;;;17.50;98.10;;;;;;4846479;29;20061;-80
2023/08/01 07:25:33;;;;;;;7.75;2.70;;;17.50;98.00;;;;;;4828605;29;20118;-80
2023/08/01 07:28:02;;;;;;;7.88;3.33;;;17.60;97.90;;;;;;4822554;29;20113;-80
2023/08/01 07:30:31;;;;;;;6.65;2.88;;;17.60;97.90;;;;;;4798448;29;20042;-80
2023/08/01 07:32:58;;;;;;;5.57;2.30;;;17.60;97.70;;;;;;4806479;29;20060;-80
2023/08/01 07:35:30;;;;;;;6.82;2.78;;;17.60;97.80;;;;;;4815309;29;20129;-80
2023/08/01 07:37:57;;;;;;;7.30;2.70;;;17.80;97.60;;;;;;4806065;29;20498;-80
2023/08/01 07:40:24;;;;;;;6.70;2.72;;;17.90;97.60;;;;;;4805729;29;20089;-80
2023/08/01 07:42:51;;;;;;;5.95;2.90;;;18.00;96.90;;;;;;4829846;29;20057;-80
2023/08/01 07:45:19;;;;;;;7.50;2.65;;;18.10;96.60;;;;;;4809562;29;20046;-80
2023/08/01 07:47:46;;;;;;;7.07;2.67;;;18.10;96.50;;;;;;4821366;29;20717;-80
2023/08/01 07:50:13;;;;;;;4.72;1.92;;;18.20;96.50;;;;;;4829265;29;20110;-80
2023/08/01 07:52:41;;;;;;;7.90;2.28;;;18.30;96.30;;;;;;4800526;29;20408;-81
2023/08/01 07:55:08;;;;;;;6.95;2.17;;;18.20;96.00;;;;;;4819281;29;20102;-81
2023/08/01 07:57:35;;;;;;;4.07;1.60;;;18.20;95.90;;;;;;4831688;29;20463;-81
2023/08/01 08:00:03;;;;;;;6.70;2.33;;;18.30;96.00;;;;;;4823147;29;20065;-81
2023/08/01 08:02:41;;;;;;;6.68;1.98;;;18.50;95.80;;;;;;4809958;29;20045;-82
2023/08/01 08:05:09;;;;;;;4.97;1.98;;;18.80;95.20;;;;;;4825478;29;20060;-82
2023/08/01 08:07:39;;;;;;;5.82;1.75;;;18.90;95.00;;;;;;4835255;29;20123;-83
2023/08/01 08:10:06;;;;;;;7.90;2.25;;;18.90;94.60;;;;;;4828662;29;20053;-81
2023/08/01 08:12:33;;;;;;;5.25;2.30;;;18.90;93.90;;;;;;4836048;29;20619;-80
2023/08/01 08:15:01;;;;;;;5.07;1.70;;;18.90;93.70;;;;;;4817175;29;20449;-83
2023/08/01 08:17:28;;;;;;;9.75;1.50;;;18.80;93.80;;;;;;4828239;29;20050;-82
2023/08/01 08:19:55;;;;;;;6.05;2.17;;;18.60;94.00;;;;;;4798883;29;21550;-84
2023/08/01 08:22:22;;;;;;;6.80;2.05;;;18.40;94.50;;;;;;4827387;29;20548;-84
2023/08/01 08:24:49;;;;;;;7.13;1.98;;;18.00;94.90;;;;;;4792640;29;20090;-81
2023/08/01 08:27:16;;;;;;;4.95;1.80;;;17.50;95.70;;;;;;4833005;29;20407;-83
2023/08/01 08:29:43;;;;;;;4.80;1.70;;;17.10;96.50;;;;;;4818812;29;20050;-81
2023/08/01 08:32:30;;;;;;;5.30;2.03;;;16.90;97.00;;;;;;4792672;29;20499;-80
2023/08/01 08:34:57;;;;;;;7.97;2.15;;;16.80;97.40;;;;;;4826521;29;20058;-80
2023/08/01 08:37:24;;;;;;;7.13;2.13;;;16.60;97.60;;;;;;4811849;29;20042;-79
2023/08/01 08:39:51;;;;;;;6.97;2.38;;;16.60;97.90;;;;;;4818587;29;20106;-83
2023/08/01 08:42:22;;;;;;;4.65;1.80;;;16.80;98.00;;;;;;4615082;29;20100;-83
2023/08/01 08:44:54;;;;;;;7.15;2.13;;;17.10;97.90;;;;;;4843216;29;20506;-87
2023/08/01 08:47:25;;;;;;;9.65;2.40;;;17.20;97.70;;;;;;4814627;29;20049;-84
2023/08/01 08:49:56;;;;;;;6.78;2.10;;;17.30;97.70;;;;;;4833692;29;20046;-87
2023/08/01 08:52:25;;;;;;;4.68;1.88;;;17.40;97.80;;;;;;4808212;29;20106;-84
2023/08/01 08:54:52;;;;;;;6.00;2.42;;;17.60;97.80;;;;;;4838880;29;20480;-85
2023/08/01 08:57:21;;;;;;;8.15;1.95;;;17.80;97.60;;;;;;4808234;29;20058;-82
2023/08/01 08:59:49;;;;;;;7.50;2.58;;;17.90;97.60;;;;;;4804452;29;20404;-83
2023/08/01 09:02:17;;;;;;;6.93;2.38;;;17.90;97.10;;;;;;4821348;29;20068;-85
2023/08/01 09:04:44;;;;;;;6.93;2.03;;;17.90;96.80;;;;;;4840147;29;20045;-86
2023/08/01 09:07:15;;;;;;;5.95;1.45;;;18.10;96.60;;;;;;4802132;29;20053;-84
2023/08/01 09:09:42;;;;;;;5.00;1.60;;;18.10;96.40;;;;;;4826081;29;20109;-84
2023/08/01 09:12:09;;;;;;;6.05;1.40;;;18.20;96.30;;;;;;4794481;29;20303;-85
2023/08/01 09:14:37;;;;;;;4.18;1.60;;;18.40;96.00;;;;;;4834014;29;20490;-86
2023/08/01 09:17:08;;;;;;;6.32;1.60;;;18.50;95.80;;;;;;4826020;29;20054;-85
2023/08/01 09:19:35;;;;;;;4.03;1.40;;;18.70;95.60;;;;;;4809207;29;20052;-85
2023/08/01 09:22:13;;;;;;;5.15;1.80;;;18.80;95.30;;;;;;4811228;29;20098;-87
2023/08/01 09:25:00;;;;;;;4.60;1.67;;;19.00;95.00;;;;;;4821253;29;20056;-86
2023/08/01 09:27:33;;;;;;;5.90;1.33;;;19.20;94.20;;;;;;4808479;29;20061;-85
2023/08/01 09:30:16;;;;;;;3.88;1.38;;;19.40;94.00;;;;;;4816024;29;20053;-84
2023/08/01 09:32:56;;;;;;;5.78;1.13;;;19.60;93.60;;;;;;4825789;29;20081;-87
2023/08/01 09:35:24;;;;;;;3.65;1.15;;;19.60;93.20;;;;;;4813042;29;20050;-82
2023/08/01 09:38:00;;;;;;;3.40;1.20;;;19.70;93.10;;;;;;4832891;29;20058;-84
2023/08/01 09:40:39;;;;;;;6.03;1.17;;;19.70;92.70;;;;;;4794000;29;20184;-85
2023/08/01 09:43:06;;;;;;;4.47;0.80;;;19.60;92.20;;;;;;4813592;29;20050;-84
2023/08/01 09:45:34;;;;;;;5.20;1.00;;;19.50;92.50;;;;;;4810654;29;20058;-86
2023/08/01 09:48:02;;;;;;;6.63;1.35;;;19.50;92.10;;;;;;4829370;29;20456;-85
2023/08/01 09:50:29;;;;;;;6.00;1.30;;;19.50;91.60;;;;;;4834329;29;20090;-85
2023/08/01 09:53:06;;;;;;;4.47;1.00;;;19.50;90.80;;;;;;4808721;29;20053;-83
2023/08/01 09:55:34;;;;;;;3.60;0.80;;;19.40;90.70;;;;;;4814360;29;20054;-85
2023/08/01 09:58:02;;;;;;;4.35;1.20;;;19.50;90.30;;;;;;4808895;29;20052;-87
2023/08/01 10:00:33;;;;;;;3.88;1.23;;;19.60;90.20;;;;;;4846732;29;20144;-84
2023/08/01 10:03:01;;;;;;;5.15;0.80;;;19.60;90.20;;;;;;4848224;29;20809;-85
2023/08/01 10:06:08;;;;;;;4.93;0.95;;;19.60;90.50;;;;;;4852403;29;20109;-86
2023/08/01 10:08:36;;;;;;;4.80;1.00;;;19.80;90.60;;;;;;4852221;29;20053;-85
2023/08/01 10:11:04;;;;;;;4.45;1.00;;;20.00;90.10;;;;;;4818563;29;20049;-85
2023/08/01 10:13:35;;;;;;;2.80;0.90;;;20.10;89.20;;;;;;4854734;29;20490;-86
2023/08/01 10:16:03;;;;;;;4.22;1.23;;;20.00;88.90;;;;;;4835004;29;20057;-85
2023/08/01 10:18:32;;;;;;;4.15;1.13;;;20.00;88.50;;;;;;4822632;29;20045;-89
2023/08/01 10:21:00;;;;;;;4.38;1.40;;;20.10;88.40;;;;;;4812542;29;20057;-88
2023/08/01 10:23:28;;;;;;;6.90;1.45;;;20.30;87.40;;;;;;4820443;29;20078;-90
2023/08/01 10:25:55;;;;;;;5.03;1.48;;;20.40;85.00;;;;;;4847097;29;20049;-88
2023/08/01 10:28:36;;;;;;;3.83;0.90;;;20.50;84.70;;;;;;4818581;29;20052;-87
2023/08/01 10:31:16;;;;;;;2.83;1.10;;;20.60;83.60;;;;;;4844252;29;20491;-90
2023/08/01 10:33:45;;;;;;;3.72;0.85;;;20.70;84.00;;;;;;4850040;29;20428;-84
2023/08/01 10:36:18;;;;;;;3.30;0.90;;;20.80;83.80;;;;;;4788273;29;20561;-89
2023/08/01 10:38:56;;;;;;;3.58;1.05;;;20.90;83.30;;;;;;4837335;29;20060;-90
2023/08/01 10:41:36;;;;;;;2.75;0.70;;;21.10;83.20;;;;;;4853708;29;20053;-92
2023/08/01 10:44:13;;;;;;;6.22;1.02;;;21.10;82.30;;;;;;4844379;29;20049;-89
2023/08/01 10:46:48;;;;;;;6.00;0.75;;;21.10;80.70;;;;;;4851898;29;20566;-86
2023/08/01 10:49:16;;;;;;;7.22;0.70;;;21.10;79.80;;;;;;4834569;29;20056;-87
2023/08/01 10:51:44;;;;;;;3.92;1.00;;;21.10;79.60;;;;;;4856763;29;20124;-85
2023/08/01 10:54:34;;;;;;;4.25;1.10;;;21.30;80.10;;;;;;4851764;29;20060;-90
2023/08/01 10:57:01;;;;;;;3.78;1.13;;;21.40;79.00;;;;;;4821254;29;20057;-90
2023/08/01 10:59:29;;;;;;;4.07;0.82;;;21.40;78.90;;;;;;4831128;29;21732;-89
2023/08/01 11:02:01;;;;;;;6.45;1.08;;;21.60;78.90;;;;;;4855055;29;20045;-89
2023/08/01 11:04:28;;;;;;;3.72;0.73;;;21.50;77.90;;;;;;4855719;29;20132;-85
2023/08/01 11:06:56;;;;;;;4.07;0.93;;;21.50;78.30;;;;;;4848283;29;20509;-91
2023/08/01 11:09:25;;;;;;;3.08;1.10;;;21.50;78.30;;;;;;4809106;29;20045;-85
2023/08/01 11:11:55;;;;;;;3.85;1.10;;;21.70;78.00;;;;;;4848294;29;20517;-85
2023/08/01 11:14:45;;;;;;;3.25;1.00;;;21.70;77.90;;;;;;4838711;29;20054;-88
2023/08/01 11:17:13;;;;;;;3.42;0.80;;;21.50;77.90;;;;;;4839107;29;20073;-88
2023/08/01 11:19:40;;;;;;;2.60;0.90;;;21.60;78.20;;;;;;4835309;29;20045;-87
2023/08/01 11:22:11;;;;;;;4.30;0.93;;;21.90;77.00;;;;;;4853363;29;20051;-90
2023/08/01 11:24:39;;;;;;;5.47;1.10;;;22.00;75.60;;;;;;4846139;29;20049;-87
2023/08/01 11:27:24;;;;;;;3.13;1.00;;;22.20;75.00;;;;;;4836621;29;20193;-88
2023/08/01 11:29:53;;;;;;;5.45;1.50;;;22.40;74.70;;;;;;4860024;29;20100;-88
2023/08/01 11:32:32;;;;;;;4.60;1.02;;;22.70;73.30;;;;;;4837027;29;20052;-88
2023/08/01 11:35:06;;;;;;;3.85;1.05;;;22.90;72.80;;;;;;4974963;23;20080;31
2023/08/01 11:38:06;;;;;;;3.88;1.33;;;23.00;72.70;;;;;;4968229;23;20059;-86
2023/08/01 11:40:40;;;;;;;3.05;0.75;;;23.20;72.20;;;;;;4908918;29;20055;-88
2023/08/01 11:43:43;;;;;;;2.47;0.80;;;23.30;71.30;;;;;;4883555;29;20099;-85
2023/08/01 11:46:10;;;;;;;3.28;1.02;;;23.40;71.40;;;;;;4889223;29;20051;-85
2023/08/01 11:48:38;;;;;;;2.75;1.00;;;23.10;71.30;;;;;;4910480;29;20043;-84
2023/08/01 11:51:05;;;;;;;4.63;0.90;;;23.10;71.00;;;;;;4904498;29;21048;-87
2023/08/01 11:53:40;;;;;;;4.97;1.02;;;23.30;70.10;;;;;;4910600;29;20051;-80
2023/08/01 11:56:21;;;;;;;5.90;1.08;;;23.40;69.80;;;;;;4880279;29;20060;-83
2023/08/01 11:58:51;;;;;;;2.88;0.70;;;23.20;70.20;;;;;;4875819;29;20135;-83
2023/08/01 12:01:19;;;;;;;2.78;0.70;;;23.20;69.70;;;;;;4857496;29;20107;-84
2023/08/01 12:03:54;;;;;;;3.28;0.88;;;22.80;69.10;;;;;;4868545;29;20045;-80
2023/08/01 12:06:32;;;;;;;2.22;0.70;;;22.30;70.20;;;;;;4865179;29;20480;-83
2023/08/01 12:09:13;;;;;;;2.95;0.77;;;21.80;70.40;;;;;;4889634;29;20063;-84
2023/08/01 12:11:41;;;;;;;2.65;0.65;;;22.40;70.80;;;;;;4876229;29;20080;-84
2023/08/01 12:14:17;;;;;;;4.88;0.90;;;23.00;69.60;;;;;;4870184;29;20048;-83
2023/08/01 12:16:46;;;;;;;1.75;0.75;;;23.10;68.30;;;;;;4884733;29;20048;-82
2023/08/01 12:19:18;;;;;;;1.95;0.80;;;22.50;69.10;;;;;;4873202;29;20140;-82
2023/08/01 12:21:45;;;;;;;5.32;0.82;;;22.10;70.60;;;;;;4854494;29;20045;-85
2023/08/01 12:24:12;;;;;;;2.50;0.40;;;21.70;71.20;;;;;;4866180;29;20059;-81
2023/08/01 12:26:39;;;;;;;4.60;0.77;;;21.50;72.50;;;;;;4871163;29;20468;-81
2023/08/01 12:29:07;;;;;;;2.97;0.60;;;21.30;73.10;;;;;;4876101;29;20072;-80
2023/08/01 12:31:34;;;;;;;5.72;0.98;;;21.10;73.40;;;;;;4872025;29;20043;-81
2023/08/01 12:34:01;;;;;;;5.15;0.90;;;20.90;73.30;;;;;;4877967;29;20119;-81
2023/08/01 12:36:29;;;;;;;3.22;0.77;;;20.70;73.70;;;;;;4866327;29;20086;-89
2023/08/01 12:38:56;;;;;;;2.35;0.80;;;20.70;73.80;;;;;;4809379;29;20160;-88
2023/08/01 12:41:25;;;;;;;2.45;0.68;;;20.70;74.00;;;;;;4899667;29;20048;-87
2023/08/01 12:43:52;;;;;;;5.25;0.82;;;20.70;73.80;;;;;;4886081;29;20043;-81
2023/08/01 12:46:19;;;;;;;3.38;1.00;;;21.00;73.50;;;;;;4909203;29;20055;-80
2023/08/01 12:48:47;;;;;;;3.60;0.60;;;21.50;72.90;;;;;;4907865;29;20056;-86
2023/08/01 12:51:14;;;;;;;4.50;0.93;;;21.80;72.00;;;;;;4887523;29;20084;-83
2023/08/01 12:53:42;;;;;;;2.25;1.13;;;21.80;71.80;;;;;;4895248;29;20048;-88
2023/08/01 12:56:12;;;;;;;5.93;1.33;;;21.70;71.70;;;;;;4889388;29;20127;-85